createdAt,value
2019-05-09T00:02:29.454Z,13.30
2019-05-09T00:05:03.413Z,12.28
2019-05-09T00:07:34.308Z,9.88
2019-05-09T00:10:07.002Z,10.15
2019-05-09T00:12:38.939Z,10.43
2019-05-09T00:15:13.505Z,10.75
2019-05-09T00:17:45.144Z,10.85
2019-05-09T00:20:18.167Z,10.80
2019-05-09T00:22:49.894Z,9.90
2019-05-09T00:25:23.606Z,9.70
2019-05-09T00:27:54.982Z,9.45
2019-05-09T00:30:27.748Z,10.23
2019-05-09T00:32:59.399Z,9.60
2019-05-09T00:35:33.830Z,9.40
2019-05-09T00:38:07.219Z,9.13
2019-05-09T00:40:54.595Z,9.35
2019-05-09T00:43:13.164Z,7.95
2019-05-09T00:45:46.653Z,8.58
2019-05-09T00:48:19.701Z,9.43
2019-05-09T00:50:51.568Z,10.18
2019-05-09T00:53:23.502Z,9.05
2019-05-09T00:55:55.548Z,10.65
2019-05-09T00:58:27.617Z,9.65
2019-05-09T01:00:59.597Z,8.55
2019-05-09T01:03:34.191Z,9.38
2019-05-09T01:06:06.370Z,8.78
2019-05-09T01:08:38.579Z,8.83
2019-05-09T01:11:13.159Z,9.73
2019-05-09T01:13:44.250Z,10.10
2019-05-09T01:16:17.190Z,9.43
2019-05-09T01:18:48.949Z,9.30
2019-05-09T01:21:20.570Z,9.75
2019-05-09T01:23:53.900Z,9.85
2019-05-09T01:26:25.978Z,9.00
2019-05-09T01:28:57.899Z,8.63
2019-05-09T01:31:29.683Z,9.63
2019-05-09T01:34:07.061Z,10.43
2019-05-09T01:36:40.108Z,10.13
2019-05-09T01:39:13.664Z,9.88
2019-05-09T01:41:44.543Z,10.90
2019-05-09T01:44:16.074Z,11.18
2019-05-09T01:46:47.900Z,11.03
2019-05-09T01:49:19.700Z,11.03
2019-05-09T01:51:53.555Z,10.85
2019-05-09T01:54:26.293Z,11.12
2019-05-09T01:56:58.426Z,10.68
2019-05-09T01:59:30.693Z,10.32
2019-05-09T02:02:08.338Z,10.53
2019-05-09T02:04:36.206Z,10.95
2019-05-09T02:07:08.096Z,10.82
2019-05-09T02:09:39.414Z,10.78
2019-05-09T02:12:11.082Z,11.25
2019-05-09T02:14:44.029Z,12.07
2019-05-09T02:17:17.243Z,11.18
2019-05-09T02:19:52.825Z,12.33
2019-05-09T02:22:29.317Z,12.65
2019-05-09T02:27:36.986Z,12.07
2019-05-09T02:30:14.774Z,12.28
2019-05-09T02:32:45.080Z,15.35
2019-05-09T02:35:17.132Z,12.88
2019-05-09T02:37:49.790Z,13.55
2019-05-09T02:40:22.212Z,12.35
2019-05-09T02:42:54.073Z,13.30
2019-05-09T02:45:28.405Z,12.93
2019-05-09T02:47:59.966Z,12.33
2019-05-09T02:50:31.487Z,12.58
2019-05-09T02:53:03.701Z,12.98
2019-05-09T02:55:38.554Z,12.43
2019-05-09T02:58:10.035Z,12.60
2019-05-09T03:00:43.029Z,12.53
2019-05-09T03:03:14.839Z,13.30
2019-05-09T03:05:48.776Z,12.53
2019-05-09T03:08:21.748Z,11.97
2019-05-09T03:10:53.738Z,12.25
2019-05-09T03:13:28.674Z,12.53
2019-05-09T03:16:00.021Z,12.55
2019-05-09T03:18:32.060Z,12.78
2019-05-09T03:21:05.201Z,14.93
2019-05-09T03:23:38.853Z,13.88
2019-05-09T03:26:12.187Z,12.00
2019-05-09T03:28:45.575Z,12.18
2019-05-09T03:31:19.692Z,12.33
2019-05-09T03:33:51.630Z,20.08
2019-05-09T03:36:23.572Z,13.00
2019-05-09T03:38:57.700Z,12.40
2019-05-09T03:41:28.900Z,12.30
2019-05-09T03:44:00.134Z,11.88
2019-05-09T03:46:32.703Z,12.15
2019-05-09T03:49:07.492Z,12.50
2019-05-09T03:51:38.885Z,12.63
2019-05-09T03:54:10.526Z,12.47
2019-05-09T03:56:43.690Z,12.58
2019-05-09T03:59:17.460Z,11.88
2019-05-09T04:01:50.366Z,12.25
2019-05-09T04:04:20.984Z,12.15
2019-05-09T04:06:52.163Z,12.20
2019-05-09T04:09:24.177Z,12.53
2019-05-09T04:11:58.295Z,11.35
2019-05-09T04:14:30.531Z,12.33
2019-05-09T04:17:02.572Z,12.37
2019-05-09T04:19:38.040Z,11.97
2019-05-09T04:22:09.469Z,11.33
2019-05-09T04:24:41.502Z,11.60
2019-05-09T04:27:14.508Z,12.78
2019-05-09T04:29:48.267Z,14.18
2019-05-09T04:32:19.449Z,26.57
2019-05-09T04:34:51.424Z,12.07
2019-05-09T04:37:23.572Z,11.90
2019-05-09T04:39:59.569Z,11.73
2019-05-09T04:42:28.827Z,11.88
2019-05-09T04:45:03.414Z,11.53
2019-05-09T04:47:41.370Z,12.43
2019-05-09T04:50:09.357Z,11.97
2019-05-09T04:52:41.887Z,12.85
2019-05-09T04:55:14.789Z,11.55
2019-05-09T04:57:48.592Z,11.75
2019-05-09T05:00:21.843Z,12.40
2019-05-09T05:02:55.068Z,12.70
2019-05-09T05:05:28.353Z,12.82
2019-05-09T05:07:59.004Z,12.28
2019-05-09T05:10:32.093Z,13.10
2019-05-09T05:13:03.857Z,13.00
2019-05-09T05:15:37.674Z,12.68
2019-05-09T05:18:17.351Z,12.33
2019-05-09T05:20:48.823Z,11.63
2019-05-09T05:23:21.403Z,12.10
2019-05-09T05:25:52.926Z,12.98
2019-05-09T05:28:24.180Z,12.65
2019-05-09T05:30:58.077Z,12.73
2019-05-09T05:33:30.284Z,12.18
2019-05-09T05:36:03.330Z,12.58
2019-05-09T05:38:37.557Z,12.95
2019-05-09T05:41:08.837Z,13.95
2019-05-09T05:43:44.565Z,13.62
2019-05-09T05:46:15.180Z,14.07
2019-05-09T05:48:48.660Z,13.38
2019-05-09T05:51:21.960Z,13.25
2019-05-09T05:53:54.333Z,13.58
2019-05-09T05:56:27.986Z,13.50
2019-05-09T05:58:59.572Z,14.58
2019-05-09T06:01:31.360Z,13.75
2019-05-09T06:04:03.297Z,14.38
2019-05-09T06:06:37.334Z,13.93
2019-05-09T06:09:09.558Z,15.58
2019-05-09T06:11:41.423Z,13.98
2019-05-09T06:14:13.262Z,15.05
2019-05-09T06:16:45.294Z,14.55
2019-05-09T06:19:17.830Z,15.32
2019-05-09T06:21:52.301Z,15.93
2019-05-09T06:24:23.165Z,14.87
2019-05-09T06:26:55.399Z,15.10
2019-05-09T06:29:28.609Z,15.25
2019-05-09T06:31:59.726Z,15.38
2019-05-09T06:34:31.216Z,14.75
2019-05-09T06:37:03.557Z,15.45
2019-05-09T06:39:37.179Z,15.72
2019-05-09T06:42:28.674Z,16.27
2019-05-09T06:45:01.736Z,15.15
2019-05-09T06:47:34.776Z,14.33
2019-05-09T06:50:09.113Z,16.45
2019-05-09T06:52:40.419Z,17.90
2019-05-09T06:55:12.721Z,15.60
2019-05-09T06:57:44.202Z,16.27
2019-05-09T07:00:18.148Z,16.90
2019-05-09T07:02:51.102Z,16.50
2019-05-09T07:05:25.437Z,15.90
2019-05-09T07:07:58.462Z,16.17
2019-05-09T07:10:30.522Z,16.82
2019-05-09T07:13:02.103Z,15.30
2019-05-09T07:15:33.803Z,15.85
2019-05-09T07:18:07.949Z,16.10
2019-05-09T07:20:39.351Z,15.80
2019-05-09T07:23:23.601Z,15.28
2019-05-09T07:25:58.155Z,14.87
2019-05-09T07:28:30.210Z,15.63
2019-05-09T07:31:03.217Z,16.57
2019-05-09T07:33:38.212Z,16.48
2019-05-09T07:36:08.656Z,17.62
2019-05-09T07:38:40.183Z,16.67
2019-05-09T07:41:11.669Z,16.87
2019-05-09T07:43:43.685Z,16.65
2019-05-09T07:46:17.754Z,17.12
2019-05-09T07:48:50.916Z,16.17
2019-05-09T07:51:22.800Z,16.42
2019-05-09T07:53:55.067Z,15.48
2019-05-09T07:56:28.484Z,15.05
2019-05-09T07:59:00.230Z,14.65
2019-05-09T08:01:32.085Z,16.48
2019-05-09T08:04:04.083Z,16.00
2019-05-09T08:06:37.966Z,16.30
2019-05-09T08:09:12.306Z,14.63
2019-05-09T08:11:43.701Z,15.32
2019-05-09T08:14:17.584Z,15.90
2019-05-09T08:16:49.164Z,17.92
2019-05-09T08:19:24.207Z,16.82
2019-05-09T08:21:57.523Z,17.42
2019-05-09T08:24:28.854Z,16.55
2019-05-09T08:27:01.127Z,16.48
2019-05-09T08:29:32.736Z,16.37
2019-05-09T08:32:07.283Z,16.80
2019-05-09T08:34:38.741Z,16.35
2019-05-09T08:37:12.558Z,16.70
2019-05-09T08:39:43.978Z,16.77
2019-05-09T08:42:19.635Z,20.12
2019-05-09T08:44:49.333Z,18.60
2019-05-09T08:47:20.737Z,16.12
2019-05-09T08:49:53.504Z,16.55
2019-05-09T08:52:24.976Z,15.78
2019-05-09T08:54:58.073Z,15.63
2019-05-09T08:57:30.242Z,16.85
2019-05-09T09:00:02.097Z,16.60
2019-05-09T09:02:37.536Z,17.02
2019-05-09T09:05:09.416Z,16.52
2019-05-09T09:07:41.058Z,17.23
2019-05-09T09:10:13.235Z,18.05
2019-05-09T09:12:47.527Z,13.78
2019-05-09T09:15:21.188Z,10.08
2019-05-09T09:17:53.274Z,9.90
2019-05-09T09:20:25.366Z,10.53
2019-05-09T09:22:58.232Z,10.15
2019-05-09T09:25:30.346Z,11.25
2019-05-09T09:28:02.128Z,10.98
2019-05-09T09:30:33.674Z,9.55
2019-05-09T09:33:05.441Z,9.65
2019-05-09T09:35:38.280Z,8.45
2019-05-09T09:38:10.943Z,9.08
2019-05-09T09:40:42.900Z,9.90
2019-05-09T09:43:17.439Z,10.20
2019-05-09T09:45:52.990Z,9.65
2019-05-09T09:48:28.337Z,11.25
2019-05-09T09:50:58.714Z,11.50
2019-05-09T09:53:30.590Z,12.85
2019-05-09T09:56:02.654Z,12.78
2019-05-09T09:58:34.653Z,13.18
2019-05-09T10:01:08.980Z,11.12
2019-05-09T10:03:41.046Z,11.03
2019-05-09T10:06:12.420Z,6.10
2019-05-09T10:08:43.944Z,3.20
2019-05-09T10:11:17.818Z,3.10
2019-05-09T10:13:51.919Z,3.58
2019-05-09T10:16:28.699Z,4.10
2019-05-09T10:18:58.171Z,3.20
2019-05-09T10:21:33.418Z,2.50
2019-05-09T10:24:05.302Z,2.70
2019-05-09T10:26:39.002Z,4.47
2019-05-09T10:29:11.524Z,3.45
2019-05-09T10:31:43.454Z,2.90
2019-05-09T10:34:17.637Z,1.72
2019-05-09T10:36:49.456Z,2.33
2019-05-09T10:39:21.361Z,2.50
2019-05-09T10:41:53.923Z,2.83
2019-05-09T10:44:28.402Z,3.15
2019-05-09T10:47:02.306Z,3.50
2019-05-09T10:49:34.123Z,3.45
2019-05-09T10:52:09.545Z,2.62
2019-05-09T10:54:40.442Z,2.10
2019-05-09T10:57:12.384Z,3.33
2019-05-09T10:59:44.906Z,6.35
2019-05-09T11:02:17.494Z,4.70
2019-05-09T11:04:49.508Z,5.78
2019-05-09T11:07:23.075Z,4.35
2019-05-09T11:09:54.681Z,6.87
2019-05-09T11:12:27.579Z,4.67
2019-05-09T11:14:59.642Z,3.87
2019-05-09T11:17:31.200Z,3.67
2019-05-09T11:20:04.896Z,5.67
2019-05-09T11:22:38.630Z,6.25
2019-05-09T11:25:09.270Z,7.00
2019-05-09T11:27:41.234Z,7.47
2019-05-09T11:30:13.147Z,6.92
2019-05-09T11:32:45.085Z,6.90
2019-05-09T11:35:17.659Z,6.33
2019-05-09T11:37:49.387Z,5.50
2019-05-09T11:40:20.980Z,4.83
2019-05-09T11:42:52.511Z,5.03
2019-05-09T11:45:25.307Z,4.80
2019-05-09T11:47:58.272Z,3.55
2019-05-09T11:50:30.517Z,4.22
2019-05-09T11:53:02.318Z,3.27
2019-05-09T11:55:36.557Z,3.10
2019-05-09T11:58:10.201Z,3.65
2019-05-09T12:00:42.162Z,3.40
2019-05-09T12:03:14.102Z,3.35
2019-05-09T12:05:47.593Z,3.60
2019-05-09T12:08:20.026Z,3.80
2019-05-09T12:10:51.328Z,3.92
2019-05-09T12:13:23.123Z,3.55
2019-05-09T12:15:55.341Z,3.70
2019-05-09T12:18:28.583Z,3.42
2019-05-09T12:21:00.846Z,3.87
2019-05-09T12:23:32.547Z,3.85
2019-05-09T12:26:04.615Z,3.42
2019-05-09T12:28:38.680Z,3.33
2019-05-09T12:31:09.925Z,3.17
2019-05-09T12:34:00.957Z,3.58
2019-05-09T12:36:32.552Z,3.65
2019-05-09T12:39:04.500Z,3.60
2019-05-09T12:41:38.431Z,3.87
2019-05-09T12:44:09.377Z,4.87
2019-05-09T12:46:41.409Z,4.15
2019-05-09T12:49:13.332Z,4.40
2019-05-09T12:51:52.897Z,5.05
2019-05-09T12:54:27.969Z,4.28
2019-05-09T12:56:59.271Z,4.80
2019-05-09T12:59:45.515Z,4.50
2019-05-09T13:02:10.921Z,4.65
2019-05-09T13:04:52.669Z,4.78
2019-05-09T13:07:24.732Z,4.90
2019-05-09T13:09:58.033Z,5.17
2019-05-09T13:12:31.386Z,5.37
2019-05-09T13:15:09.554Z,4.80
2019-05-09T13:17:42.692Z,5.17
2019-05-09T13:20:17.911Z,5.15
2019-05-09T13:23:00.516Z,5.30
2019-05-09T13:25:32.412Z,5.72
2019-05-09T13:28:04.402Z,4.87
2019-05-09T13:30:39.390Z,5.40
2019-05-09T13:33:11.480Z,4.78
2019-05-09T13:35:43.329Z,7.70
2019-05-09T13:38:17.774Z,5.70
2019-05-09T13:40:53.631Z,5.17
2019-05-09T13:43:20.594Z,4.62
2019-05-09T13:45:52.601Z,4.67
2019-05-09T13:48:56.209Z,4.90
2019-05-09T13:51:04.677Z,5.10
2019-05-09T13:53:38.708Z,4.85
2019-05-09T13:56:10.340Z,4.60
2019-05-09T13:58:42.042Z,5.05
2019-05-09T14:01:13.185Z,5.22
2019-05-09T14:03:44.871Z,4.50
2019-05-09T14:06:16.383Z,4.42
2019-05-09T14:08:49.717Z,3.98
2019-05-09T14:11:22.796Z,4.35
2019-05-09T14:14:12.552Z,4.10
2019-05-09T14:16:44.294Z,4.78
2019-05-09T14:19:39.627Z,4.72
2019-05-09T14:28:22.462Z,4.53
2019-05-09T14:30:59.395Z,4.37
2019-05-09T14:33:39.816Z,4.72
2019-05-09T14:36:08.237Z,4.17
2019-05-09T14:42:11.317Z,4.62
2019-05-09T14:44:47.245Z,4.62
2019-05-09T14:47:19.838Z,4.90
2019-05-09T14:55:22.174Z,5.05
2019-05-09T14:58:19.227Z,5.75
2019-05-09T15:00:51.175Z,4.92
2019-05-09T15:03:23.197Z,5.72
2019-05-09T15:05:57.266Z,5.10
2019-05-09T15:08:40.859Z,5.20
2019-05-09T15:11:04.429Z,4.60
2019-05-09T15:13:36.151Z,5.67
2019-05-09T15:16:18.467Z,5.30
2019-05-09T15:18:49.938Z,5.58
2019-05-09T15:21:26.980Z,5.97
2019-05-09T15:23:58.738Z,5.80
2019-05-09T15:26:31.330Z,6.30
2019-05-09T15:29:08.257Z,6.35
2019-05-09T15:31:45.056Z,6.35
2019-05-09T15:34:20.551Z,5.42
2019-05-09T15:39:48.437Z,5.58
2019-05-09T15:42:32.935Z,5.78
2019-05-09T15:45:11.911Z,5.50
2019-05-09T15:47:40.987Z,5.55
2019-05-09T15:50:22.508Z,5.70
2019-05-09T15:52:53.584Z,5.95
2019-05-09T15:59:08.377Z,5.62
2019-05-09T16:01:40.169Z,6.60
2019-05-09T16:04:12.062Z,5.92
2019-05-09T16:06:44.446Z,5.95
2019-05-09T16:09:22.321Z,5.75
2019-05-09T16:12:00.300Z,6.05
2019-05-09T16:17:02.763Z,5.90
2019-05-09T16:19:34.504Z,5.42
2019-05-09T16:22:08.027Z,6.33
2019-05-09T16:24:39.972Z,6.50
2019-05-09T16:27:11.921Z,6.28
2019-05-09T16:29:43.455Z,6.35
2019-05-09T16:32:17.636Z,6.03
2019-05-09T16:34:48.626Z,5.97
2019-05-09T16:37:20.123Z,5.62
2019-05-09T16:39:52.412Z,6.40
2019-05-09T16:42:24.280Z,6.58
2019-05-09T16:44:59.162Z,6.28
2019-05-09T16:47:29.165Z,6.55
2019-05-09T16:50:00.885Z,6.25
2019-05-09T16:52:33.883Z,6.58
2019-05-09T16:55:11.456Z,6.47
2019-05-09T16:57:43.318Z,6.95
2019-05-09T17:00:27.472Z,6.90
2019-05-09T17:03:00.151Z,7.90
2019-05-09T17:05:31.442Z,8.40
2019-05-09T17:08:08.011Z,8.73
2019-05-09T17:10:38.676Z,9.13
2019-05-09T17:13:13.635Z,9.60
2019-05-09T17:15:45.626Z,9.73
2019-05-09T17:18:18.955Z,10.03
2019-05-09T17:20:54.500Z,9.18
2019-05-09T17:23:29.613Z,8.20
2019-05-09T17:26:08.615Z,8.48
2019-05-09T17:28:37.631Z,7.67
2019-05-09T17:31:11.554Z,8.55
2019-05-09T17:33:42.625Z,7.87
2019-05-09T17:36:14.768Z,8.23
2019-05-09T17:38:47.839Z,8.05
2019-05-09T17:41:22.170Z,8.83
2019-05-09T17:43:54.447Z,8.13
2019-05-09T17:46:27.556Z,8.48
2019-05-09T17:49:02.453Z,8.25
2019-05-09T17:51:41.770Z,8.18
2019-05-09T17:54:10.659Z,8.38
2019-05-09T17:56:43.167Z,8.65
2019-05-09T17:59:13.929Z,8.63
2019-05-09T18:01:48.088Z,8.23
2019-05-09T18:04:20.920Z,8.13
2019-05-09T18:06:54.810Z,8.98
2019-05-09T18:09:28.579Z,8.35
2019-05-09T18:11:59.800Z,9.48
2019-05-09T18:14:31.266Z,9.15
2019-05-09T18:17:03.512Z,9.83
2019-05-09T18:19:37.938Z,9.70
2019-05-09T18:22:10.647Z,9.13
2019-05-09T18:24:42.540Z,10.08
2019-05-09T18:27:18.128Z,10.53
2019-05-09T18:29:49.781Z,9.75
2019-05-09T18:32:21.461Z,8.58
2019-05-09T18:34:54.052Z,9.73
2019-05-09T18:37:27.851Z,9.83
2019-05-09T18:39:58.482Z,9.60
2019-05-09T18:42:29.918Z,10.03
2019-05-09T18:45:03.081Z,9.75
2019-05-09T18:47:37.238Z,9.45
2019-05-09T18:50:09.688Z,9.85
2019-05-09T18:52:44.766Z,10.50
2019-05-09T18:55:15.725Z,10.15
2019-05-09T18:57:47.794Z,10.28
2019-05-09T19:00:23.389Z,10.00
2019-05-09T19:02:54.214Z,11.12
2019-05-09T19:05:26.673Z,11.45
2019-05-09T19:07:58.721Z,11.20
2019-05-09T19:10:30.501Z,11.93
2019-05-09T19:13:03.879Z,13.15
2019-05-09T19:15:37.045Z,13.75
2019-05-09T19:18:08.687Z,13.10
2019-05-09T19:20:40.164Z,13.62
2019-05-09T19:23:11.798Z,12.80
2019-05-09T19:25:44.085Z,12.73
2019-05-09T19:28:16.300Z,13.08
2019-05-09T19:30:47.914Z,13.38
2019-05-09T19:33:19.485Z,12.70
2019-05-09T19:35:51.372Z,14.40
2019-05-09T19:38:23.170Z,13.40
2019-05-09T19:40:55.229Z,14.93
2019-05-09T19:43:27.277Z,14.70
2019-05-09T19:45:58.544Z,15.75
2019-05-09T19:48:40.934Z,15.60
2019-05-09T19:51:12.367Z,16.80
2019-05-09T19:53:43.772Z,17.35
2019-05-09T19:56:15.722Z,17.27
2019-05-09T19:58:47.816Z,16.80
2019-05-09T20:01:21.001Z,16.82
2019-05-09T20:03:53.138Z,17.37
2019-05-09T20:06:25.149Z,16.85
2019-05-09T20:08:57.059Z,17.00
2019-05-09T20:11:32.993Z,16.65
2019-05-09T20:14:04.310Z,17.17
2019-05-09T20:16:37.756Z,17.48
2019-05-09T20:19:09.184Z,16.35
2019-05-09T20:21:41.301Z,16.60
2019-05-09T20:24:13.351Z,17.45
2019-05-09T20:26:45.406Z,16.10
2019-05-09T20:29:17.087Z,17.87
2019-05-09T20:31:48.862Z,17.30
2019-05-09T20:34:20.862Z,18.17
2019-05-09T20:36:52.678Z,17.75
2019-05-09T20:39:26.653Z,17.57
2019-05-09T20:41:59.076Z,16.35
2019-05-09T20:44:31.137Z,16.02
2019-05-09T20:47:03.845Z,15.30
2019-05-09T20:49:35.835Z,15.63
2019-05-09T20:52:07.622Z,15.93
2019-05-09T20:54:39.177Z,16.82
2019-05-09T20:57:11.387Z,15.08
2019-05-09T20:59:46.026Z,16.15
2019-05-09T21:02:18.227Z,16.05
2019-05-09T21:04:50.529Z,16.93
2019-05-09T21:07:24.671Z,15.88
2019-05-09T21:09:56.926Z,14.98
2019-05-09T21:12:28.661Z,15.38
2019-05-09T21:15:01.332Z,15.63
2019-05-09T21:17:33.534Z,16.60
2019-05-09T21:20:06.746Z,15.80
2019-05-09T21:22:39.603Z,15.75
2019-05-09T21:25:11.925Z,17.00
2019-05-09T21:27:43.269Z,17.37
2019-05-09T21:30:15.138Z,20.27
2019-05-09T21:32:47.240Z,22.32
2019-05-09T21:35:19.088Z,22.60
2019-05-09T21:37:50.858Z,18.27
2019-05-09T21:40:23.843Z,19.27
2019-05-09T21:42:56.126Z,17.82
2019-05-09T21:45:28.153Z,18.52
2019-05-09T21:48:00.250Z,18.48
2019-05-09T21:50:32.140Z,16.70
2019-05-09T21:53:03.987Z,16.48
2019-05-09T21:55:35.749Z,15.53
2019-05-09T21:58:07.268Z,14.53
2019-05-09T22:00:41.930Z,14.05
2019-05-09T22:03:13.970Z,14.38
2019-05-09T22:05:46.325Z,13.53
2019-05-09T22:08:20.166Z,14.90
2019-05-09T22:10:51.428Z,14.40
2019-05-09T22:13:23.746Z,12.93
2019-05-09T22:15:55.599Z,13.78
2019-05-09T22:18:27.176Z,15.40
2019-05-09T22:20:58.479Z,14.38
2019-05-09T22:23:29.904Z,14.93
2019-05-09T22:26:01.196Z,15.00
2019-05-09T22:28:33.134Z,14.47
2019-05-09T22:31:06.259Z,14.53
2019-05-09T22:33:38.180Z,13.88
2019-05-09T22:36:10.170Z,15.00
2019-05-09T22:38:43.634Z,15.75
2019-05-09T22:41:14.138Z,14.93
2019-05-09T22:43:46.125Z,15.35
2019-05-09T22:46:17.629Z,14.58
2019-05-09T22:48:49.596Z,16.55
2019-05-09T22:51:31.544Z,16.73
2019-05-09T22:54:12.383Z,15.75
2019-05-09T22:56:36.358Z,16.37
2019-05-09T22:59:10.291Z,16.85
2019-05-09T23:01:42.318Z,17.12
2019-05-09T23:04:14.306Z,17.00
2019-05-09T23:07:05.536Z,17.60
2019-05-09T23:09:37.518Z,16.73
2019-05-09T23:12:09.580Z,17.17
2019-05-09T23:14:41.730Z,16.73
2019-05-09T23:17:14.004Z,17.57
2019-05-09T23:19:49.093Z,17.90
2019-05-09T23:22:19.418Z,17.00
2019-05-09T23:24:51.435Z,17.10
2019-05-09T23:27:23.404Z,17.02
2019-05-09T23:29:55.221Z,17.62
2019-05-09T23:32:27.981Z,15.32
2019-05-09T23:35:00.188Z,16.65
2019-05-09T23:37:32.104Z,16.05
2019-05-09T23:40:04.044Z,16.37
2019-05-09T23:42:35.676Z,16.62
2019-05-09T23:45:10.021Z,17.15
2019-05-09T23:47:41.117Z,16.05
2019-05-09T23:54:03.886Z,15.63
2019-05-09T23:56:36.894Z,14.78
2019-05-09T23:59:10.126Z,16.25
